• Join FlightAware (Why Join?)
  • Login
  • US Flag 
05:40AM EST


 

Airport Tracker/Info


-or-


 

Live Flight TrackerFlight Track Log ✈ N508QS ✈ 08-Jun-2013 ✈ KMKC - KMDW

Flight Track Log - Related Links

Times and Time Zones

All times are in EDT time to prevent confusion due to time zone crossing. See the N508QS flight status page for this flight to view local times or setup timezone preferences in your user account.

Time Position Orientation Groundspeed Altitude Reporting Facility
EDT Latitude Longitude Course Direction KTS MPH feet Rate Location/Type
07:20PM 39.1167 -94.6000 218° Southwest 157 181 1,900  Level Kansas City TRACON
07:21PM 39.1000 -94.6167 218° Southwest 174 200 3,600 3,660 Climbing Kansas City TRACON
07:21PM 39.0914 -94.6364 241° Southwest 195 224 4,800 4,140 Climbing Kansas City Center
07:22PM 39.1197 -94.7081 297° West 276 318 9,400 3,660 Climbing Kansas City Center
07:23PM 39.2036 -94.7200 354° North 325 374 12,300 3,360 Climbing Kansas City Center
07:24PM 39.3153 -94.7167 North 366 421 16,400 3,480 Climbing Kansas City Center
07:25PM 39.3900 -94.6114 47° Northeast 420 483 19,500 3,360 Climbing Kansas City Center
07:26PM 39.4869 -94.4872 45° Northeast 437 503 23,200 3,240 Climbing Kansas City Center
07:27PM 39.5744 -94.3775 44° Northeast 456 525 26,100 2,880 Climbing Kansas City Center
07:28PM 39.6803 -94.2431 44° Northeast 477 549 29,100 2,640 Climbing Kansas City Center
07:29PM 39.7742 -94.1250 44° Northeast 493 567 31,500 2,400 Climbing Kansas City Center
07:30PM 39.8536 -94.0036 50° Northeast 494 568 34,100 2,460 Climbing Kansas City Center
07:31PM 39.8964 -93.8333 72° East 498 573 36,700 1,380 Climbing Kansas City Center
07:32PM 39.9392 -93.6267 75° East 498 573 37,000 120 Climbing Kansas City Center
07:33PM 39.9758 -93.4531 75° East 501 577 37,000  Level Kansas City Center
07:35PM 40.0097 -93.2917 75° East 474 545 37,000  Level Kansas City Center
07:36PM 40.0433 -93.1275 75° East 471 542 37,000  Level Kansas City Center
07:37PM 40.0828 -92.9386 75° East 475 547 37,000  Level Kansas City Center
07:38PM 40.1147 -92.7783 75° East 476 548 37,000  Level Kansas City Center
07:39PM 40.1469 -92.6183 75° East 476 548 37,000  Level Kansas City Center
07:40PM 40.1861 -92.4311 75° East 478 550 37,000  Level Kansas City Center
07:41PM 40.2169 -92.2756 75° East 479 551 37,000 -60 Level Kansas City Center
07:42PM 40.2503 -92.1092 75° East 480 552 36,900 -600 Descending Kansas City Center
07:43PM 40.2833 -91.9389 76° East 484 557 35,900 -1,140 Descending Kansas City Center
07:44PM 40.3244 -91.7264 76° East 500 575 34,700 -1,200 Descending Kansas City Center
07:45PM 40.3581 -91.5522 76° East 500 575 33,600 -1,140 Descending Kansas City Center
07:45PM 40.3786 -91.4461 76° East 502 578 32,900 -1,200 Descending Chicago Center
07:46PM 40.4125 -91.2611 76° East 506 582 31,600 -1,200 Descending Chicago Center
07:47PM 40.4258 -91.1911 76° East 504 580 31,200 -600 Descending Kansas City Center
07:47PM 40.4469 -91.0889 75° East 492 566 31,000 -180 Descending Chicago Center
07:48PM 40.4778 -90.9150 77° East 490 564 31,000 -60 Level Chicago Center
07:49PM 40.5108 -90.7378 76° East 497 572 30,900 -780 Descending Chicago Center
07:50PM 40.5425 -90.5614 77° East 497 572 29,500 -1,620 Descending Chicago Center
07:52PM 40.5828 -90.3425 76° East 511 588 27,700 -1,560 Descending Chicago Center
07:53PM 40.6106 -90.1836 77° East 499 574 26,400 -1,380 Descending Chicago Center
07:54PM 40.6417 -90.0119 77° East 487 560 24,900 -1,200 Descending Chicago Center
07:55PM 40.6753 -89.8067 78° East 482 555 24,000 -660 Descending Chicago Center
07:56PM 40.7406 -89.6553 60° Northeast 480 552 23,600 -1,560 Descending Chicago Center
07:57PM 40.8044 -89.5036 61° Northeast 459 528 20,900 -2,400 Descending Chicago Center
07:58PM 40.8675 -89.3586 60° Northeast 456 525 18,700 -1,980 Descending Chicago Center
07:59PM 40.9267 -89.2200 61° Northeast 432 497 16,900 -1,620 Descending Chicago Center
08:00PM 40.9967 -89.0914 54° Northeast 429 494 15,500 -1,500 Descending Chicago Center
08:01PM 41.0731 -88.9872 46° Northeast 416 479 13,900 -1,800 Descending Chicago Center
08:02PM 41.1594 -88.8647 47° Northeast 381 438 11,900 -1,680 Descending Chicago Center
08:03PM 41.2222 -88.7742 47° Northeast 337 388 10,500 -1,260 Descending Chicago Center
08:04PM 41.2789 -88.6919 47° Northeast 307 353 9,400 -1,140 Descending Chicago Center
08:05PM 41.3244 -88.5969 57° Northeast 305 351 8,200 -1,200 Descending Chicago Center
08:06PM 41.3675 -88.5067 58° Northeast 295 339 7,000 -1,080 Descending Chicago Center
08:07PM 41.4097 -88.4208 57° Northeast 283 326 6,000 -840 Descending Chicago Center
08:08PM 41.4511 -88.3344 57° Northeast 278 320 5,400 -720 Descending Chicago Center
08:09PM 41.4931 -88.2489 57° Northeast 276 318 4,600 -720 Descending Chicago Center
08:10PM 41.5347 -88.1642 57° Northeast 272 313 4,000 -300 Descending Chicago Center
08:11PM 41.5836 -88.0619 57° Northeast 271 312 4,000  Level Chicago Center
08:12PM 41.6217 -87.9842 57° Northeast 261 300 4,000  Level Chicago Center
08:13PM 41.6511 -87.9250 56° Northeast 217 250 4,000 -420 Level Chicago Center
08:14PM 41.6878 -87.8722 47° Northeast 201 231 3,200 -900 Descending Chicago Center
08:15PM 41.7253 -87.8283 41° Northeast 190 219 2,200 -840 Descending Chicago Center
08:16PM 41.7547 -87.7950 40° Northeast 163 188 1,500 -540 Descending Chicago Center
08:17PM 41.7797 -87.7639 43° Northeast 138 159 1,100 -420 Descending Chicago Center
08:19PM 41.7833 -87.7500 North  Level FlightAware Approximate